createdAt,value
2018-09-02T00:01:46.471Z,11.80
2018-09-02T00:04:16.486Z,12.33
2018-09-02T00:06:46.516Z,11.73
2018-09-02T00:09:18.222Z,11.50
2018-09-02T00:11:48.745Z,11.20
2018-09-02T00:14:19.250Z,11.40
2018-09-02T00:16:48.654Z,11.37
2018-09-02T00:19:17.550Z,11.20
2018-09-02T00:21:47.108Z,11.30
2018-09-02T00:24:16.467Z,11.50
2018-09-02T00:26:46.046Z,10.57
2018-09-02T00:29:15.435Z,11.17
2018-09-02T00:31:45.089Z,10.47
2018-09-02T00:34:14.236Z,10.70
2018-09-02T00:36:44.405Z,11.07
2018-09-02T00:39:14.548Z,11.03
2018-09-02T00:41:43.644Z,10.70
2018-09-02T00:44:13.078Z,10.57
2018-09-02T00:46:43.381Z,10.93
2018-09-02T00:49:12.407Z,10.50
2018-09-02T00:51:43.997Z,10.50
2018-09-02T00:54:13.251Z,10.60
2018-09-02T00:56:43.486Z,10.30
2018-09-02T00:59:12.824Z,10.30
2018-09-02T01:01:42.304Z,10.90
2018-09-02T01:04:11.294Z,10.27
2018-09-02T01:06:40.925Z,10.27
2018-09-02T01:09:10.411Z,10.40
2018-09-02T01:11:40.739Z,10.77
2018-09-02T01:14:10.125Z,10.53
2018-09-02T01:16:39.190Z,10.60
2018-09-02T01:19:09.312Z,10.10
2018-09-02T01:21:39.000Z,10.07
2018-09-02T01:24:08.123Z,10.70
2018-09-02T01:26:37.478Z,9.97
2018-09-02T01:29:06.954Z,10.97
2018-09-02T01:31:36.813Z,10.53
2018-09-02T01:34:06.805Z,10.60
2018-09-02T01:36:36.693Z,10.50
2018-09-02T01:39:06.637Z,11.00
2018-09-02T01:41:35.662Z,10.20
2018-09-02T01:44:06.386Z,10.53
2018-09-02T01:46:35.840Z,10.37
2018-09-02T01:49:05.501Z,11.30
2018-09-02T01:51:34.921Z,10.63
2018-09-02T01:54:04.162Z,11.00
2018-09-02T01:56:34.329Z,10.57
2018-09-02T01:59:03.104Z,10.43
2018-09-02T02:01:32.243Z,10.50
2018-09-02T02:04:02.360Z,10.67
2018-09-02T02:06:31.450Z,10.47
2018-09-02T02:09:00.545Z,10.60
2018-09-02T02:11:29.903Z,11.10
2018-09-02T02:13:59.916Z,10.70
2018-09-02T02:16:30.444Z,10.90
2018-09-02T02:18:59.717Z,10.10
2018-09-02T02:21:29.001Z,10.83
2018-09-02T02:23:58.005Z,11.50
2018-09-02T02:26:26.970Z,11.60
2018-09-02T02:28:56.452Z,11.07
2018-09-02T02:31:26.410Z,10.97
2018-09-02T02:33:56.541Z,11.30
2018-09-02T02:36:26.048Z,10.87
2018-09-02T02:38:55.140Z,10.97
2018-09-02T02:41:24.933Z,10.57
2018-09-02T02:43:54.590Z,10.60
2018-09-02T02:46:24.032Z,11.23
2018-09-02T02:48:53.070Z,11.13
2018-09-02T02:51:22.843Z,11.03
2018-09-02T02:53:51.753Z,11.80
2018-09-02T02:56:21.967Z,11.50
2018-09-02T02:58:51.042Z,10.93
2018-09-02T03:01:20.917Z,11.47
2018-09-02T03:03:50.619Z,11.20
2018-09-02T03:06:21.506Z,10.37
2018-09-02T03:08:50.803Z,11.30
2018-09-02T03:11:20.655Z,12.10
2018-09-02T03:13:50.338Z,11.30
2018-09-02T03:16:19.755Z,11.73
2018-09-02T03:18:50.226Z,11.73
2018-09-02T03:21:20.196Z,11.40
2018-09-02T03:23:49.425Z,12.17
2018-09-02T03:26:18.724Z,11.37
2018-09-02T03:28:47.737Z,10.90
2018-09-02T03:31:18.691Z,11.80
2018-09-02T03:33:48.275Z,12.10
2018-09-02T03:36:18.555Z,11.67
2018-09-02T03:38:47.985Z,12.20
2018-09-02T03:41:17.388Z,12.53
2018-09-02T03:43:46.719Z,12.70
2018-09-02T03:46:16.736Z,11.70
2018-09-02T03:48:47.318Z,11.73
2018-09-02T03:51:16.812Z,12.97
2018-09-02T03:53:47.562Z,12.13
2018-09-02T03:56:17.027Z,11.40
2018-09-02T03:58:47.097Z,11.60
2018-09-02T04:01:16.666Z,11.97
2018-09-02T04:03:48.113Z,11.80
2018-09-02T04:06:17.731Z,11.90
2018-09-02T04:08:49.198Z,12.03
2018-09-02T04:11:20.489Z,11.40
2018-09-02T04:13:49.610Z,12.20
2018-09-02T04:16:19.018Z,11.83
2018-09-02T04:18:49.229Z,12.20
2018-09-02T04:21:18.894Z,12.10
2018-09-02T04:23:48.426Z,12.33
2018-09-02T04:26:17.869Z,12.93
2018-09-02T04:28:46.814Z,13.50
2018-09-02T04:31:16.363Z,13.43
2018-09-02T04:33:45.548Z,13.17
2018-09-02T04:36:14.836Z,14.20
2018-09-02T04:38:43.814Z,13.60
2018-09-02T04:41:13.440Z,13.47
2018-09-02T04:43:42.421Z,14.40
2018-09-02T04:46:12.150Z,14.47
2018-09-02T04:48:41.812Z,14.70
2018-09-02T04:51:11.736Z,13.20
2018-09-02T04:53:40.970Z,14.27
2018-09-02T04:56:10.782Z,13.57
2018-09-02T04:58:39.814Z,14.20
2018-09-02T05:01:10.302Z,13.73
2018-09-02T05:03:40.317Z,14.13
2018-09-02T05:06:09.559Z,14.47
2018-09-02T05:08:39.166Z,13.10
2018-09-02T05:11:08.861Z,15.30
2018-09-02T05:13:38.572Z,13.63
2018-09-02T05:16:07.567Z,13.80
2018-09-02T05:18:36.938Z,14.20
2018-09-02T05:21:05.903Z,14.00
2018-09-02T05:23:35.274Z,14.20
2018-09-02T05:26:04.775Z,13.70
2018-09-02T05:28:33.694Z,13.43
2018-09-02T05:31:04.314Z,13.40
2018-09-02T05:33:33.338Z,13.87
2018-09-02T05:36:03.041Z,14.00
2018-09-02T05:38:32.436Z,13.43
2018-09-02T05:41:01.443Z,13.80
2018-09-02T05:43:30.744Z,14.20
2018-09-02T05:46:00.494Z,13.90
2018-09-02T05:48:29.997Z,14.17
2018-09-02T05:51:00.315Z,14.20
2018-09-02T05:53:29.984Z,15.10
2018-09-02T05:56:00.102Z,15.67
2018-09-02T05:58:29.794Z,13.50
2018-09-02T06:00:58.645Z,15.13
2018-09-02T06:03:27.823Z,15.47
2018-09-02T06:05:58.595Z,15.00
2018-09-02T06:08:28.198Z,15.37
2018-09-02T06:10:58.949Z,15.50
2018-09-02T06:13:28.021Z,15.80
2018-09-02T06:15:58.148Z,15.13
2018-09-02T06:18:28.203Z,15.00
2018-09-02T06:20:58.863Z,16.40
2018-09-02T06:23:28.229Z,16.67
2018-09-02T06:26:04.731Z,16.67
2018-09-02T06:28:34.033Z,16.80
2018-09-02T06:31:04.278Z,16.40
2018-09-02T06:33:35.172Z,16.33
2018-09-02T06:36:04.522Z,15.93
2018-09-02T06:38:34.505Z,18.23
2018-09-02T06:41:03.467Z,16.93
2018-09-02T06:43:32.585Z,18.90
2018-09-02T06:46:03.154Z,19.10
2018-09-02T06:48:32.651Z,19.43
2018-09-02T06:51:02.602Z,18.67
2018-09-02T06:53:31.910Z,18.50
2018-09-02T06:56:02.449Z,19.63
2018-09-02T06:58:31.782Z,20.53
2018-09-02T07:01:00.987Z,19.67
2018-09-02T07:03:31.488Z,19.70
2018-09-02T07:06:01.322Z,19.50
2018-09-02T07:08:31.468Z,19.93
2018-09-02T07:11:01.313Z,21.63
2018-09-02T07:13:31.126Z,20.00
2018-09-02T07:16:01.135Z,20.83
2018-09-02T07:18:32.110Z,21.40
2018-09-02T07:21:03.382Z,19.70
2018-09-02T07:23:33.475Z,20.03
2018-09-02T07:26:02.596Z,19.00
2018-09-02T07:28:34.940Z,19.83
2018-09-02T07:31:06.849Z,19.53
2018-09-02T07:33:36.399Z,19.73
2018-09-02T07:36:05.799Z,19.20
2018-09-02T07:38:35.157Z,17.60
2018-09-02T07:41:04.334Z,19.47
2018-09-02T07:43:35.351Z,19.60
2018-09-02T07:46:05.673Z,18.23
2018-09-02T07:48:35.324Z,19.90
2018-09-02T07:51:04.538Z,18.57
2018-09-02T07:53:34.729Z,18.40
2018-09-02T07:56:04.511Z,17.83
2018-09-02T07:58:33.598Z,18.90
2018-09-02T08:01:03.646Z,17.90
2018-09-02T08:03:32.692Z,18.53
2018-09-02T08:06:02.487Z,18.30
2018-09-02T08:08:32.558Z,19.60
2018-09-02T08:11:02.497Z,20.07
2018-09-02T08:13:34.395Z,19.40
2018-09-02T08:16:04.469Z,20.20
2018-09-02T08:18:33.642Z,20.13
2018-09-02T08:21:03.644Z,19.33
2018-09-02T08:23:33.483Z,18.57
2018-09-02T08:26:04.520Z,20.10
2018-09-02T08:28:33.831Z,19.03
2018-09-02T08:31:03.246Z,18.27
2018-09-02T08:33:32.822Z,18.43
2018-09-02T08:36:02.669Z,20.70
2018-09-02T08:38:33.196Z,20.90
2018-09-02T08:41:02.904Z,19.70
2018-09-02T08:43:31.943Z,19.10
2018-09-02T08:46:01.008Z,20.37
2018-09-02T08:48:29.989Z,20.43
2018-09-02T08:51:00.181Z,22.03
2018-09-02T08:53:29.591Z,21.70
2018-09-02T08:55:58.945Z,21.07
2018-09-02T08:58:28.523Z,22.23
2018-09-02T09:00:59.034Z,20.67
2018-09-02T09:03:28.742Z,21.20
2018-09-02T09:05:57.871Z,21.50
2018-09-02T09:08:28.588Z,21.60
2018-09-02T09:11:00.019Z,21.93
2018-09-02T09:13:30.222Z,23.07
2018-09-02T09:16:00.119Z,21.60
2018-09-02T09:18:29.699Z,22.63
2018-09-02T09:20:59.701Z,21.90
2018-09-02T09:23:29.327Z,22.33
2018-09-02T09:25:58.796Z,21.73
2018-09-02T09:28:29.126Z,20.27
2018-09-02T09:30:59.398Z,20.40
2018-09-02T09:33:29.135Z,19.10
2018-09-02T09:35:58.749Z,18.47
2018-09-02T09:38:29.961Z,18.40
2018-09-02T09:41:00.022Z,19.03
2018-09-02T09:43:29.790Z,17.87
2018-09-02T09:45:59.393Z,19.23
2018-09-02T09:48:28.624Z,17.27
2018-09-02T09:50:58.404Z,17.00
2018-09-02T09:53:27.944Z,16.60
2018-09-02T09:55:57.303Z,16.20
2018-09-02T09:58:27.098Z,16.37
2018-09-02T10:00:56.347Z,15.50
2018-09-02T10:03:27.183Z,14.30
2018-09-02T10:05:56.946Z,15.07
2018-09-02T10:08:26.905Z,14.67
2018-09-02T10:10:57.273Z,14.97
2018-09-02T10:13:26.850Z,14.50
2018-09-02T10:15:56.333Z,14.57
2018-09-02T10:18:25.758Z,13.67
2018-09-02T10:20:55.884Z,13.27
2018-09-02T10:23:25.531Z,15.53
2018-09-02T10:25:55.182Z,14.03
2018-09-02T10:28:24.454Z,14.33
2018-09-02T10:30:54.123Z,15.20
2018-09-02T10:33:24.544Z,15.60
2018-09-02T10:35:54.971Z,14.40
2018-09-02T10:38:24.207Z,14.67
2018-09-02T10:40:54.403Z,14.60
2018-09-02T10:43:24.751Z,13.70
2018-09-02T10:45:54.213Z,14.50
2018-09-02T10:48:23.534Z,14.27
2018-09-02T10:50:53.169Z,14.63
2018-09-02T10:53:22.280Z,13.80
2018-09-02T10:55:52.433Z,14.80
2018-09-02T10:58:22.096Z,14.13
2018-09-02T11:00:51.490Z,14.50
2018-09-02T11:03:21.304Z,13.43
2018-09-02T11:05:51.046Z,13.70
2018-09-02T11:08:20.544Z,14.30
2018-09-02T11:10:49.793Z,14.00
2018-09-02T11:13:19.516Z,14.00
2018-09-02T11:15:48.763Z,13.90
2018-09-02T11:18:18.692Z,12.57
2018-09-02T11:20:48.498Z,13.30
2018-09-02T11:23:17.544Z,13.10
2018-09-02T11:25:47.901Z,12.97
2018-09-02T11:28:17.697Z,13.30
2018-09-02T11:30:47.183Z,12.13
2018-09-02T11:33:16.837Z,12.03
2018-09-02T11:35:45.878Z,12.70
2018-09-02T11:38:14.907Z,12.40
2018-09-02T11:40:44.268Z,12.30
2018-09-02T11:43:14.633Z,12.17
2018-09-02T11:45:45.231Z,12.27
2018-09-02T11:48:14.934Z,11.60
2018-09-02T11:50:44.514Z,11.47
2018-09-02T11:53:13.467Z,11.60
2018-09-02T11:55:42.687Z,11.23
2018-09-02T11:58:12.573Z,11.50
2018-09-02T12:00:42.638Z,11.47
2018-09-02T12:03:13.401Z,10.97
2018-09-02T12:05:42.776Z,11.50
2018-09-02T12:08:11.718Z,11.50
2018-09-02T12:10:41.428Z,11.30
2018-09-02T12:13:10.435Z,11.03
2018-09-02T12:15:39.654Z,11.27
2018-09-02T12:18:09.597Z,10.60
2018-09-02T12:20:39.542Z,11.47
2018-09-02T12:23:09.564Z,11.60
2018-09-02T12:25:38.989Z,12.60
2018-09-02T12:28:08.269Z,11.30
2018-09-02T12:30:37.755Z,12.00
2018-09-02T12:33:07.127Z,11.53
2018-09-02T12:35:36.844Z,11.17
2018-09-02T12:38:06.296Z,10.90
2018-09-02T12:40:35.394Z,12.17
2018-09-02T12:43:04.534Z,11.67
2018-09-02T12:45:35.131Z,12.37
2018-09-02T12:48:04.555Z,12.67
2018-09-02T12:50:33.439Z,13.03
2018-09-02T12:53:02.974Z,12.30
2018-09-02T12:55:32.918Z,11.60
2018-09-02T12:58:01.892Z,11.73
2018-09-02T13:00:34.002Z,11.50
2018-09-02T13:03:03.555Z,11.70
2018-09-02T13:05:33.053Z,12.00
2018-09-02T13:08:02.924Z,11.80
2018-09-02T13:10:32.916Z,16.03
2018-09-02T13:13:03.093Z,12.00
2018-09-02T13:15:32.188Z,12.07
2018-09-02T13:18:01.511Z,12.20
2018-09-02T13:20:31.399Z,11.63
2018-09-02T13:23:01.166Z,11.93
2018-09-02T13:25:31.470Z,12.30
2018-09-02T13:28:00.960Z,12.00
2018-09-02T13:30:30.531Z,11.87
2018-09-02T13:32:59.687Z,12.37
2018-09-02T13:35:29.844Z,12.00
2018-09-02T13:37:59.674Z,11.97
2018-09-02T13:40:29.705Z,11.63
2018-09-02T13:42:59.370Z,12.37
2018-09-02T13:45:29.819Z,12.40
2018-09-02T13:47:58.960Z,12.60
2018-09-02T13:50:28.656Z,13.10
2018-09-02T13:52:57.862Z,12.57
2018-09-02T13:55:27.576Z,12.30
2018-09-02T13:57:56.980Z,12.10
2018-09-02T14:00:26.388Z,12.37
2018-09-02T14:02:55.301Z,11.93
2018-09-02T14:05:25.144Z,12.23
2018-09-02T14:07:55.332Z,12.13
2018-09-02T14:10:25.208Z,12.47
2018-09-02T14:12:55.491Z,13.17
2018-09-02T14:15:25.245Z,12.67
2018-09-02T14:17:55.288Z,12.70
2018-09-02T14:20:25.209Z,13.20
2018-09-02T14:22:55.257Z,12.60
2018-09-02T14:25:24.851Z,12.67
2018-09-02T14:27:54.652Z,12.80
2018-09-02T14:30:23.843Z,12.00
2018-09-02T14:32:52.957Z,12.40
2018-09-02T14:35:22.242Z,12.97
2018-09-02T14:40:29.700Z,12.40
2018-09-02T14:43:00.263Z,13.70
2018-09-02T14:45:29.579Z,13.30
2018-09-02T14:47:59.946Z,13.13
2018-09-02T14:50:28.992Z,13.43
2018-09-02T14:52:58.338Z,12.73
2018-09-02T14:55:28.737Z,13.20
2018-09-02T14:57:58.652Z,13.37
2018-09-02T15:00:27.796Z,13.17
2018-09-02T15:02:56.800Z,13.77
2018-09-02T15:05:26.123Z,13.20
2018-09-02T15:07:56.065Z,14.43
2018-09-02T15:10:25.474Z,13.77
2018-09-02T15:12:54.438Z,14.13
2018-09-02T15:15:24.451Z,13.00
2018-09-02T15:17:54.717Z,14.03
2018-09-02T15:20:24.335Z,13.07
2018-09-02T15:22:54.308Z,13.77
2018-09-02T15:25:23.413Z,12.70
2018-09-02T15:27:53.652Z,13.47
2018-09-02T15:30:23.724Z,13.33
2018-09-02T15:32:53.442Z,13.83
2018-09-02T15:35:22.784Z,13.40
2018-09-02T15:37:51.913Z,13.77
2018-09-02T15:40:22.507Z,12.97
2018-09-02T15:42:51.710Z,14.30
2018-09-02T15:45:20.944Z,13.03
2018-09-02T15:47:57.336Z,12.60
2018-09-02T15:50:26.577Z,13.13
2018-09-02T15:52:56.919Z,12.70
2018-09-02T15:55:26.174Z,13.43
2018-09-02T15:57:55.598Z,13.10
2018-09-02T16:00:26.189Z,12.77
2018-09-02T16:02:56.547Z,13.80
2018-09-02T16:05:25.696Z,13.10
2018-09-02T16:07:54.972Z,14.13
2018-09-02T16:10:26.302Z,17.10
2018-09-02T16:12:55.655Z,13.13
2018-09-02T16:15:26.563Z,14.50
2018-09-02T16:17:56.661Z,13.17
2018-09-02T16:20:25.723Z,14.77
2018-09-02T16:22:55.479Z,14.03
2018-09-02T16:25:24.991Z,14.17
2018-09-02T16:27:54.733Z,15.23
2018-09-02T16:30:25.369Z,13.20
2018-09-02T16:32:54.392Z,14.00
2018-09-02T16:35:23.886Z,13.63
2018-09-02T16:37:53.621Z,13.50
2018-09-02T16:40:23.760Z,13.77
2018-09-02T16:42:52.810Z,13.50
2018-09-02T16:45:22.167Z,13.00
2018-09-02T16:47:52.309Z,12.87
2018-09-02T16:50:21.496Z,13.83
2018-09-02T16:52:50.563Z,13.60
2018-09-02T16:55:20.519Z,14.17
2018-09-02T16:57:50.426Z,13.60
2018-09-02T17:00:26.626Z,14.70
2018-09-02T17:02:56.271Z,14.43
2018-09-02T17:05:28.152Z,14.53
2018-09-02T17:07:57.154Z,12.93
2018-09-02T17:10:27.259Z,13.70
2018-09-02T17:12:56.643Z,15.20
2018-09-02T17:15:27.002Z,14.17
2018-09-02T17:17:59.133Z,14.57
2018-09-02T17:20:36.585Z,14.70
2018-09-02T17:23:12.210Z,13.43
2018-09-02T17:25:42.620Z,13.47
2018-09-02T17:28:11.544Z,13.47
2018-09-02T17:30:41.155Z,13.50
2018-09-02T17:33:11.984Z,14.83
2018-09-02T17:35:40.980Z,14.07
2018-09-02T17:38:10.199Z,14.27
2018-09-02T17:40:39.789Z,14.40
2018-09-02T17:43:09.369Z,15.07
2018-09-02T17:45:39.599Z,14.33
2018-09-02T17:48:09.190Z,14.60
2018-09-02T17:50:38.626Z,13.93
2018-09-02T17:53:08.397Z,14.80
2018-09-02T17:55:37.429Z,14.03
2018-09-02T17:58:06.221Z,14.20
2018-09-02T18:00:41.750Z,14.27
2018-09-02T18:03:11.796Z,14.27
2018-09-02T18:05:41.891Z,13.83
2018-09-02T18:08:10.940Z,14.20
2018-09-02T18:10:40.150Z,14.13
2018-09-02T18:13:09.112Z,14.10
2018-09-02T18:15:39.447Z,13.80
2018-09-02T18:18:10.006Z,13.77
2018-09-02T18:20:43.005Z,13.40
2018-09-02T18:23:12.721Z,14.93
2018-09-02T18:25:42.759Z,15.50
2018-09-02T18:28:16.003Z,15.73
2018-09-02T18:30:45.171Z,14.20
2018-09-02T18:33:14.777Z,14.30
2018-09-02T18:35:44.750Z,14.10
2018-09-02T18:38:14.315Z,14.80
2018-09-02T18:40:43.656Z,13.77
2018-09-02T18:43:13.027Z,14.70
2018-09-02T18:45:42.729Z,14.37
2018-09-02T18:48:11.758Z,14.87
2018-09-02T18:50:40.768Z,14.57
2018-09-02T18:53:10.382Z,13.87
2018-09-02T18:55:39.515Z,16.20
2018-09-02T18:58:09.582Z,15.33
2018-09-02T19:00:39.663Z,14.47
2018-09-02T19:03:09.667Z,15.47
2018-09-02T19:05:39.728Z,14.50
2018-09-02T19:08:09.034Z,15.10
2018-09-02T19:10:38.737Z,14.00
2018-09-02T19:13:07.000Z,14.53
2018-09-02T19:15:36.581Z,15.27
2018-09-02T19:18:06.656Z,15.47
2018-09-02T19:20:35.888Z,15.13
2018-09-02T19:23:05.601Z,14.70
2018-09-02T19:25:34.473Z,14.67
2018-09-02T19:28:03.542Z,15.10
2018-09-02T19:30:32.988Z,16.33
2018-09-02T19:33:03.727Z,15.53
2018-09-02T19:35:32.918Z,15.03
2018-09-02T19:38:02.545Z,16.03
2018-09-02T19:40:31.891Z,16.53
2018-09-02T19:43:01.529Z,15.13
2018-09-02T19:45:30.896Z,15.40
2018-09-02T19:48:00.136Z,15.17
2018-09-02T19:50:29.431Z,14.70
2018-09-02T19:52:59.794Z,15.50
2018-09-02T19:55:29.503Z,14.30
2018-09-02T19:57:59.592Z,15.70
2018-09-02T20:00:28.615Z,14.73
2018-09-02T20:02:58.205Z,14.50
2018-09-02T20:05:27.231Z,15.00
2018-09-02T20:07:56.534Z,14.50
2018-09-02T20:10:25.725Z,15.23
2018-09-02T20:12:55.085Z,14.73
2018-09-02T20:15:24.156Z,14.90
2018-09-02T20:17:53.948Z,15.83
2018-09-02T20:20:23.147Z,15.50
2018-09-02T20:22:52.347Z,14.90
2018-09-02T20:25:21.567Z,15.23
2018-09-02T20:27:50.612Z,15.27
2018-09-02T20:30:20.273Z,15.30
2018-09-02T20:32:50.198Z,14.93
2018-09-02T20:35:20.686Z,26.90
2018-09-02T20:37:49.915Z,16.87
2018-09-02T20:40:19.815Z,14.93
2018-09-02T20:42:49.603Z,14.43
2018-09-02T20:45:19.539Z,15.17
2018-09-02T20:47:48.502Z,15.60
2018-09-02T20:50:17.399Z,15.83
2018-09-02T20:52:46.338Z,19.60
2018-09-02T20:55:15.774Z,17.17
2018-09-02T20:57:45.704Z,15.37
2018-09-02T21:00:16.156Z,16.63
2018-09-02T21:02:45.315Z,18.83
2018-09-02T21:05:15.136Z,15.10
2018-09-02T21:07:44.503Z,19.47
2018-09-02T21:10:13.753Z,17.03
2018-09-02T21:12:43.931Z,14.37
2018-09-02T21:15:13.858Z,15.30
2018-09-02T21:17:43.393Z,15.30
2018-09-02T21:20:14.643Z,14.53
2018-09-02T21:22:44.192Z,13.93
2018-09-02T21:25:13.542Z,15.00
2018-09-02T21:27:43.981Z,13.90
2018-09-02T21:30:14.173Z,16.10
2018-09-02T21:32:43.856Z,15.40
2018-09-02T21:35:14.331Z,15.33
2018-09-02T21:37:48.239Z,14.40
2018-09-02T21:43:00.373Z,15.10
2018-09-02T21:45:29.569Z,15.23
2018-09-02T21:47:59.683Z,14.23
2018-09-02T21:50:29.792Z,15.93
2018-09-02T21:53:01.590Z,15.70
2018-09-02T21:55:32.457Z,15.13
2018-09-02T21:58:04.092Z,14.50
2018-09-02T22:00:35.225Z,14.50
2018-09-02T22:03:04.622Z,15.00
2018-09-02T22:05:34.539Z,15.40
2018-09-02T22:08:06.629Z,14.60
2018-09-02T22:10:35.966Z,14.23
2018-09-02T22:13:05.359Z,14.87
2018-09-02T22:15:36.290Z,14.60
2018-09-02T22:18:06.916Z,13.93
2018-09-02T22:20:39.499Z,15.13
2018-09-02T22:23:10.910Z,15.80
2018-09-02T22:25:44.621Z,15.33
2018-09-02T22:28:13.797Z,14.87
2018-09-02T22:30:44.903Z,13.83
2018-09-02T22:33:16.539Z,15.80
2018-09-02T22:35:45.939Z,15.17
2018-09-02T22:38:15.529Z,13.83
2018-09-02T22:40:45.271Z,14.23
2018-09-02T22:43:14.385Z,14.73
2018-09-02T22:45:44.177Z,14.97
2018-09-02T22:48:13.435Z,14.80
2018-09-02T22:50:42.442Z,14.20
2018-09-02T22:53:11.442Z,14.43
2018-09-02T22:55:41.020Z,14.57
2018-09-02T22:58:10.349Z,14.07
2018-09-02T23:00:39.684Z,14.77
2018-09-02T23:03:08.970Z,14.27
2018-09-02T23:05:40.790Z,14.40
2018-09-02T23:08:10.316Z,14.70
2018-09-02T23:10:39.906Z,14.27
2018-09-02T23:13:09.023Z,15.10
2018-09-02T23:15:38.585Z,15.37
2018-09-02T23:18:08.298Z,15.57
2018-09-02T23:20:39.590Z,15.30
2018-09-02T23:23:08.735Z,15.87
2018-09-02T23:25:37.978Z,14.73
2018-09-02T23:28:09.966Z,15.40
2018-09-02T23:30:38.935Z,15.33
2018-09-02T23:33:08.589Z,14.77
2018-09-02T23:35:38.121Z,14.70
2018-09-02T23:38:07.597Z,13.73
2018-09-02T23:40:36.589Z,15.00
2018-09-02T23:43:06.350Z,14.83
2018-09-02T23:45:35.389Z,15.13
2018-09-02T23:48:04.613Z,14.43
2018-09-02T23:50:34.040Z,15.43
2018-09-02T23:53:03.880Z,14.83
2018-09-02T23:55:33.116Z,15.07
2018-09-02T23:58:02.090Z,15.20
